createdAt,value
2022-12-05T00:01:13.167Z,7.07
2022-12-05T00:03:39.784Z,6.47
2022-12-05T00:06:06.518Z,6.20
2022-12-05T00:08:33.216Z,6.80
2022-12-05T00:10:59.794Z,6.88
2022-12-05T00:13:26.473Z,6.68
2022-12-05T00:15:53.009Z,6.50
2022-12-05T00:18:19.579Z,6.45
2022-12-05T00:20:47.817Z,6.90
2022-12-05T00:23:14.996Z,7.03
2022-12-05T00:25:42.017Z,7.32
2022-12-05T00:28:08.638Z,6.90
2022-12-05T00:30:35.283Z,7.35
2022-12-05T00:33:01.943Z,7.40
2022-12-05T00:35:28.487Z,7.72
2022-12-05T00:37:55.103Z,7.57
2022-12-05T00:40:21.807Z,7.60
2022-12-05T00:42:52.291Z,7.40
2022-12-05T00:45:19.328Z,7.13
2022-12-05T00:47:46.008Z,7.20
2022-12-05T00:50:12.601Z,7.13
2022-12-05T00:52:39.157Z,7.10
2022-12-05T00:55:06.188Z,6.63
2022-12-05T00:57:33.115Z,6.85
2022-12-05T00:59:59.902Z,6.47
2022-12-05T01:02:26.594Z,6.60
2022-12-05T01:04:53.147Z,7.27
2022-12-05T01:07:19.793Z,6.95
2022-12-05T01:09:46.332Z,7.07
2022-12-05T01:12:12.885Z,6.53
2022-12-05T01:14:39.477Z,6.80
2022-12-05T01:17:06.190Z,7.27
2022-12-05T01:19:33.540Z,7.10
2022-12-05T01:22:00.172Z,7.00
2022-12-05T01:24:28.228Z,6.90
2022-12-05T01:26:55.404Z,6.78
2022-12-05T01:29:23.938Z,6.87
2022-12-05T01:31:50.935Z,6.72
2022-12-05T01:34:18.589Z,6.80
2022-12-05T01:36:45.598Z,6.43
2022-12-05T01:39:13.648Z,6.63
2022-12-05T01:41:43.853Z,6.47
2022-12-05T01:44:13.106Z,6.93
2022-12-05T01:46:44.748Z,6.60
2022-12-05T01:49:15.661Z,6.60
2022-12-05T01:51:46.969Z,7.00
2022-12-05T01:54:16.446Z,6.23
2022-12-05T01:56:46.873Z,6.90
2022-12-05T01:59:14.193Z,6.80
2022-12-05T02:01:41.453Z,6.55
2022-12-05T02:04:09.507Z,6.70
2022-12-05T02:06:36.110Z,6.67
2022-12-05T02:09:03.701Z,6.70
2022-12-05T02:11:33.325Z,6.70
2022-12-05T02:14:02.788Z,6.35
2022-12-05T02:16:41.496Z,6.88
2022-12-05T02:19:35.266Z,7.10
2022-12-05T02:22:36.813Z,6.85
2022-12-05T02:25:30.800Z,6.82
2022-12-05T02:28:22.081Z,6.32
2022-12-05T02:30:58.116Z,6.70
2022-12-05T02:33:30.685Z,6.50
2022-12-05T02:36:15.755Z,6.40
2022-12-05T02:39:15.257Z,6.30
2022-12-05T02:41:52.985Z,6.55
2022-12-05T02:44:43.796Z,5.82
2022-12-05T02:47:14.827Z,6.30
2022-12-05T02:49:43.212Z,6.50
2022-12-05T02:52:14.273Z,6.45
2022-12-05T02:54:45.022Z,6.50
2022-12-05T02:57:13.387Z,6.82
2022-12-05T02:59:40.183Z,6.70
2022-12-05T03:02:09.252Z,6.70
2022-12-05T03:04:35.880Z,6.35
2022-12-05T03:07:07.120Z,6.18
2022-12-05T03:09:43.380Z,6.38
2022-12-05T03:12:20.413Z,6.33
2022-12-05T03:15:05.623Z,6.50
2022-12-05T03:17:37.575Z,6.45
2022-12-05T03:20:23.066Z,6.18
2022-12-05T03:23:14.446Z,6.82
2022-12-05T03:26:05.452Z,6.40
2022-12-05T03:28:46.540Z,6.07
2022-12-05T03:31:18.367Z,6.50
2022-12-05T03:33:49.508Z,6.50
2022-12-05T03:36:22.858Z,6.65
2022-12-05T03:38:57.698Z,6.70
2022-12-05T03:41:42.903Z,5.85
2022-12-05T03:44:13.775Z,5.85
2022-12-05T03:47:09.392Z,6.50
2022-12-05T03:49:41.565Z,6.15
2022-12-05T03:52:23.235Z,5.73
2022-12-05T03:54:53.782Z,6.15
2022-12-05T03:57:29.451Z,5.93
2022-12-05T04:00:01.743Z,6.05
2022-12-05T04:02:56.105Z,6.15
2022-12-05T04:05:32.362Z,5.70
2022-12-05T04:08:04.936Z,5.78
2022-12-05T04:10:48.509Z,6.43
2022-12-05T04:13:35.052Z,6.00
2022-12-05T04:16:26.768Z,5.72
2022-12-05T04:18:59.911Z,5.60
2022-12-05T04:21:40.035Z,5.50
2022-12-05T04:24:29.505Z,5.53
2022-12-05T04:27:08.516Z,5.43
2022-12-05T04:29:42.521Z,5.60
2022-12-05T04:32:13.233Z,5.27
2022-12-05T04:34:42.377Z,5.57
2022-12-05T04:37:16.324Z,6.28
2022-12-05T04:39:51.666Z,5.80
2022-12-05T04:42:26.090Z,5.75
2022-12-05T04:45:00.785Z,5.47
2022-12-05T04:47:31.820Z,5.40
2022-12-05T04:50:00.447Z,5.57
2022-12-05T04:52:28.999Z,5.55
2022-12-05T04:55:01.290Z,5.80
2022-12-05T04:57:40.704Z,5.37
2022-12-05T05:00:08.210Z,5.15
2022-12-05T05:02:47.030Z,5.63
2022-12-05T05:05:17.927Z,5.30
2022-12-05T05:07:50.819Z,5.20
2022-12-05T05:10:23.028Z,5.13
2022-12-05T05:12:49.583Z,5.60
2022-12-05T05:15:16.177Z,5.45
2022-12-05T05:17:42.928Z,5.53
2022-12-05T05:20:24.974Z,5.72
2022-12-05T05:22:53.033Z,5.40
2022-12-05T05:25:20.032Z,5.10
2022-12-05T05:27:51.294Z,5.38
2022-12-05T05:30:19.574Z,4.75
2022-12-05T05:32:46.500Z,5.40
2022-12-05T05:35:14.578Z,4.67
2022-12-05T05:37:41.910Z,4.95
2022-12-05T05:40:11.396Z,4.95
2022-12-05T05:42:46.504Z,4.90
2022-12-05T05:45:15.098Z,4.93
2022-12-05T05:47:42.554Z,5.10
2022-12-05T05:50:10.186Z,4.55
2022-12-05T05:52:38.042Z,4.38
2022-12-05T05:55:06.425Z,4.38
2022-12-05T05:57:33.204Z,5.05
2022-12-05T06:00:00.079Z,4.57
2022-12-05T06:02:32.419Z,4.60
2022-12-05T06:04:59.457Z,4.72
2022-12-05T06:07:26.910Z,4.70
2022-12-05T06:09:53.553Z,4.88
2022-12-05T06:12:20.195Z,4.37
2022-12-05T06:14:48.802Z,4.80
2022-12-05T06:17:15.643Z,4.38
2022-12-05T06:19:42.275Z,4.32
2022-12-05T06:22:08.847Z,4.40
2022-12-05T06:24:35.683Z,4.80
2022-12-05T06:27:02.248Z,4.32
2022-12-05T06:29:32.456Z,4.20
2022-12-05T06:32:00.675Z,4.15
2022-12-05T06:34:27.746Z,4.35
2022-12-05T06:36:54.401Z,4.07
2022-12-05T06:39:21.033Z,4.20
2022-12-05T06:41:47.821Z,4.00
2022-12-05T06:44:14.388Z,4.13
2022-12-05T06:46:40.956Z,4.10
2022-12-05T06:49:07.506Z,4.17
2022-12-05T06:51:34.082Z,3.45
2022-12-05T06:54:00.685Z,4.50
2022-12-05T06:56:27.378Z,4.18
2022-12-05T06:58:54.172Z,4.25
2022-12-05T07:01:42.335Z,4.23
2022-12-05T07:04:16.998Z,3.90
2022-12-05T07:06:50.180Z,3.97
2022-12-05T07:09:43.592Z,3.63
2022-12-05T07:12:10.470Z,3.78
2022-12-05T07:14:47.442Z,3.80
2022-12-05T07:17:15.919Z,3.90
2022-12-05T07:19:42.486Z,3.78
2022-12-05T07:22:13.842Z,3.65
2022-12-05T07:24:42.253Z,3.80
2022-12-05T07:27:08.872Z,3.57
2022-12-05T07:29:35.460Z,3.78
2022-12-05T07:32:02.208Z,4.18
2022-12-05T07:34:28.978Z,3.65
2022-12-05T07:36:55.551Z,3.83
2022-12-05T07:39:22.141Z,3.40
2022-12-05T07:41:48.750Z,3.88
2022-12-05T07:44:15.324Z,3.83
2022-12-05T07:46:42.097Z,3.33
2022-12-05T07:49:09.084Z,3.58
2022-12-05T07:51:35.920Z,3.50
2022-12-05T07:54:02.845Z,3.47
2022-12-05T07:56:29.437Z,3.65
2022-12-05T07:58:56.023Z,3.33
2022-12-05T08:01:25.105Z,3.15
2022-12-05T08:03:57.157Z,3.33
2022-12-05T08:06:27.079Z,3.78
2022-12-05T08:08:54.186Z,3.50
2022-12-05T08:11:26.671Z,3.55
2022-12-05T08:13:53.727Z,3.58
2022-12-05T08:16:23.636Z,2.97
2022-12-05T08:19:08.850Z,3.17
2022-12-05T08:21:36.672Z,3.22
2022-12-05T08:24:07.821Z,3.63
2022-12-05T08:26:35.458Z,3.40
2022-12-05T08:29:04.013Z,3.70
2022-12-05T08:31:33.708Z,3.13
2022-12-05T08:34:00.739Z,3.47
2022-12-05T08:36:31.271Z,3.30
2022-12-05T08:38:59.728Z,3.28
2022-12-05T08:41:28.989Z,3.50
2022-12-05T08:44:03.487Z,3.22
2022-12-05T08:46:31.288Z,3.35
2022-12-05T08:48:58.012Z,3.30
2022-12-05T08:51:25.040Z,3.65
2022-12-05T08:53:51.738Z,3.50
2022-12-05T08:56:23.353Z,3.42
2022-12-05T08:58:53.195Z,3.47
2022-12-05T09:01:22.127Z,2.97
2022-12-05T09:03:49.144Z,3.30
2022-12-05T09:06:21.375Z,3.73
2022-12-05T09:08:49.037Z,3.70
2022-12-05T09:11:20.176Z,3.63
2022-12-05T09:13:47.894Z,3.40
2022-12-05T09:16:20.485Z,3.30
2022-12-05T09:18:48.633Z,2.60
2022-12-05T09:21:21.114Z,3.35
2022-12-05T09:23:48.578Z,3.42
2022-12-05T09:26:17.924Z,3.25
2022-12-05T09:28:44.755Z,3.85
2022-12-05T09:31:16.957Z,3.03
2022-12-05T09:33:43.999Z,3.38
2022-12-05T09:36:16.166Z,3.17
2022-12-05T09:38:43.630Z,3.17
2022-12-05T09:41:56.077Z,3.17
2022-12-05T09:45:00.232Z,3.50
2022-12-05T09:47:38.780Z,3.20
2022-12-05T09:50:17.287Z,3.17
2022-12-05T09:53:09.633Z,3.03
2022-12-05T09:55:45.729Z,2.90
2022-12-05T09:58:27.599Z,3.00
2022-12-05T10:01:00.682Z,3.33
2022-12-05T10:03:37.708Z,2.95
2022-12-05T10:06:24.175Z,3.53
2022-12-05T10:08:56.554Z,3.20
2022-12-05T10:11:43.771Z,3.10
2022-12-05T10:14:26.454Z,3.25
2022-12-05T10:16:58.725Z,2.90
2022-12-05T10:19:34.459Z,2.80
2022-12-05T10:22:20.542Z,3.22
2022-12-05T10:24:52.577Z,3.05
2022-12-05T10:27:40.082Z,3.28
2022-12-05T10:30:13.841Z,3.20
2022-12-05T10:32:56.682Z,3.28
2022-12-05T10:35:26.199Z,2.90
2022-12-05T10:37:57.229Z,2.95
2022-12-05T10:40:27.495Z,2.88
2022-12-05T10:42:54.089Z,3.00
2022-12-05T10:45:23.180Z,3.00
2022-12-05T10:47:54.137Z,2.65
2022-12-05T10:50:23.583Z,3.05
2022-12-05T10:52:56.938Z,3.30
2022-12-05T10:55:29.868Z,3.00
2022-12-05T10:58:18.075Z,3.13
2022-12-05T11:00:48.186Z,2.97
2022-12-05T11:03:24.377Z,3.10
2022-12-05T11:05:52.582Z,3.30
2022-12-05T11:08:56.107Z,3.13
2022-12-05T11:11:22.593Z,3.22
2022-12-05T11:14:25.381Z,3.22
2022-12-05T11:16:58.137Z,2.97
2022-12-05T11:19:32.078Z,3.00
2022-12-05T11:21:59.948Z,3.05
2022-12-05T11:24:33.392Z,2.92
2022-12-05T11:27:20.767Z,3.03
2022-12-05T11:30:21.409Z,2.97
2022-12-05T11:32:49.600Z,3.10
2022-12-05T11:35:16.102Z,3.25
2022-12-05T11:37:48.557Z,2.92
2022-12-05T11:40:18.061Z,3.28
2022-12-05T11:43:13.441Z,3.17
2022-12-05T11:45:58.599Z,3.00
2022-12-05T11:48:57.211Z,3.13
2022-12-05T11:51:40.041Z,3.10
2022-12-05T11:55:03.793Z,3.15
2022-12-05T11:57:22.810Z,2.92
2022-12-05T12:00:04.004Z,3.05
2022-12-05T12:02:49.180Z,3.08
2022-12-05T12:05:40.339Z,3.00
2022-12-05T12:08:09.966Z,2.90
2022-12-05T12:10:57.605Z,2.72
2022-12-05T12:13:46.427Z,3.00
2022-12-05T12:16:37.643Z,3.10
2022-12-05T12:19:19.550Z,2.97
2022-12-05T12:22:04.426Z,3.30
2022-12-05T12:24:39.927Z,3.30
2022-12-05T12:27:48.177Z,2.92
2022-12-05T12:30:15.199Z,2.95
2022-12-05T12:32:58.724Z,3.25
2022-12-05T12:35:32.719Z,2.83
2022-12-05T12:38:26.988Z,3.95
2022-12-05T12:41:06.944Z,3.10
2022-12-05T12:44:30.838Z,3.17
2022-12-05T12:47:04.207Z,3.47
2022-12-05T12:50:12.515Z,3.20
2022-12-05T12:53:05.155Z,3.13
2022-12-05T12:56:01.511Z,3.40
2022-12-05T12:58:34.003Z,3.10
2022-12-05T13:01:29.244Z,3.15
2022-12-05T13:04:06.582Z,2.85
2022-12-05T13:06:39.639Z,3.30
2022-12-05T13:09:17.549Z,3.65
2022-12-05T13:11:46.806Z,3.10
2022-12-05T13:14:17.657Z,3.40
2022-12-05T13:16:50.316Z,3.55
2022-12-05T13:19:31.341Z,3.30
2022-12-05T13:21:58.831Z,3.30
2022-12-05T13:24:28.761Z,3.40
2022-12-05T13:27:00.520Z,3.58
2022-12-05T13:29:36.491Z,3.33
2022-12-05T13:32:05.412Z,3.22
2022-12-05T13:34:35.290Z,3.47
2022-12-05T13:37:30.358Z,3.00
2022-12-05T13:40:17.003Z,3.10
2022-12-05T13:42:44.505Z,3.28
2022-12-05T13:45:20.146Z,3.15
2022-12-05T13:48:06.893Z,3.50
2022-12-05T13:50:35.942Z,3.30
2022-12-05T13:53:24.184Z,3.30
2022-12-05T13:56:01.112Z,3.30
2022-12-05T13:58:41.543Z,3.28
2022-12-05T14:01:33.988Z,3.60
2022-12-05T14:04:03.792Z,3.72
2022-12-05T14:06:39.265Z,3.30
2022-12-05T14:09:11.872Z,3.38
2022-12-05T14:11:38.425Z,3.13
2022-12-05T14:14:10.345Z,3.30
2022-12-05T14:16:44.542Z,3.00
2022-12-05T14:19:33.993Z,3.72
2022-12-05T14:22:14.716Z,3.50
2022-12-05T14:24:55.554Z,3.67
2022-12-05T14:27:44.358Z,3.50
2022-12-05T14:30:32.094Z,3.45
2022-12-05T14:33:01.932Z,3.60
2022-12-05T14:35:40.644Z,3.75
2022-12-05T14:38:18.500Z,3.72
2022-12-05T14:40:47.379Z,3.10
2022-12-05T14:43:34.389Z,3.42
2022-12-05T14:46:04.206Z,3.10
2022-12-05T14:48:47.278Z,3.67
2022-12-05T14:51:32.536Z,3.05
2022-12-05T14:54:11.870Z,3.47
2022-12-05T14:56:49.635Z,3.60
2022-12-05T14:59:18.887Z,3.72
2022-12-05T15:01:56.133Z,3.63
2022-12-05T15:04:43.592Z,3.65
2022-12-05T15:07:16.877Z,3.42
2022-12-05T15:10:08.286Z,3.78
2022-12-05T15:12:48.753Z,3.63
2022-12-05T15:15:40.325Z,3.63
2022-12-05T15:18:36.484Z,3.92
2022-12-05T15:21:19.160Z,3.75
2022-12-05T15:24:06.671Z,3.88
2022-12-05T15:26:47.888Z,4.10
2022-12-05T15:29:26.816Z,3.72
2022-12-05T15:31:54.607Z,3.60
2022-12-05T15:34:28.824Z,3.72
2022-12-05T15:37:17.235Z,3.80
2022-12-05T15:39:53.747Z,3.72
2022-12-05T15:42:29.581Z,3.80
2022-12-05T15:45:12.024Z,4.22
2022-12-05T15:47:39.864Z,3.92
2022-12-05T15:50:12.557Z,3.67
2022-12-05T15:52:50.704Z,4.15
2022-12-05T15:55:41.643Z,3.83
2022-12-05T15:58:31.665Z,4.50
2022-12-05T16:01:09.334Z,4.13
2022-12-05T16:04:11.277Z,3.92
2022-12-05T16:06:49.346Z,4.15
2022-12-05T16:09:26.312Z,3.90
2022-12-05T16:11:57.333Z,3.58
2022-12-05T16:17:16.660Z,3.90
2022-12-05T16:19:43.828Z,3.90
2022-12-05T16:22:13.168Z,3.95
2022-12-05T16:24:53.826Z,3.88
2022-12-05T16:27:39.573Z,3.80
2022-12-05T16:30:18.457Z,4.05
2022-12-05T16:32:46.611Z,4.10
2022-12-05T16:35:36.485Z,3.83
2022-12-05T16:38:27.094Z,3.70
2022-12-05T16:40:58.160Z,4.18
2022-12-05T16:43:26.066Z,4.25
2022-12-05T16:45:55.247Z,4.13
2022-12-05T16:48:25.963Z,3.90
2022-12-05T16:51:12.390Z,3.95
2022-12-05T16:53:40.844Z,3.65
2022-12-05T16:56:13.442Z,4.47
2022-12-05T16:58:40.012Z,4.05
2022-12-05T17:01:07.415Z,3.97
2022-12-05T17:03:35.801Z,4.25
2022-12-05T17:06:03.654Z,4.15
2022-12-05T17:08:30.332Z,4.30
2022-12-05T17:10:58.008Z,4.03
2022-12-05T17:13:25.106Z,3.70
2022-12-05T17:15:51.829Z,4.55
2022-12-05T17:18:20.903Z,3.95
2022-12-05T17:20:53.172Z,3.78
2022-12-05T17:23:20.395Z,4.10
2022-12-05T17:25:53.151Z,4.30
2022-12-05T17:28:20.232Z,4.25
2022-12-05T17:30:46.850Z,3.95
2022-12-05T17:33:15.875Z,3.83
2022-12-05T17:35:42.800Z,3.92
2022-12-05T17:38:10.914Z,4.22
2022-12-05T17:40:38.473Z,4.10
2022-12-05T17:43:05.726Z,4.30
2022-12-05T17:45:33.126Z,4.07
2022-12-05T17:48:00.039Z,3.80
2022-12-05T17:50:27.830Z,3.78
2022-12-05T17:53:01.628Z,4.22
2022-12-05T17:55:32.404Z,4.20
2022-12-05T17:57:58.958Z,4.03
2022-12-05T18:00:25.645Z,4.20
2022-12-05T18:02:52.654Z,4.35
2022-12-05T18:05:20.075Z,4.90
2022-12-05T18:07:47.523Z,4.80
2022-12-05T18:10:21.221Z,4.25
2022-12-05T18:12:48.817Z,4.25
2022-12-05T18:15:15.994Z,4.30
2022-12-05T18:17:43.713Z,4.63
2022-12-05T18:20:14.329Z,4.20
2022-12-05T18:22:41.394Z,4.40
2022-12-05T18:25:09.453Z,4.22
2022-12-05T18:27:37.657Z,3.95
2022-12-05T18:30:05.721Z,4.30
2022-12-05T18:32:32.897Z,4.30
2022-12-05T18:35:01.757Z,4.35
2022-12-05T18:37:28.942Z,3.92
2022-12-05T18:39:56.428Z,3.88
2022-12-05T18:42:23.366Z,4.68
2022-12-05T18:44:49.997Z,4.13
2022-12-05T18:47:16.581Z,4.43
2022-12-05T18:49:43.134Z,4.38
2022-12-05T18:52:10.283Z,4.28
2022-12-05T18:54:36.982Z,4.05
2022-12-05T18:57:03.818Z,4.22
2022-12-05T18:59:30.799Z,4.15
2022-12-05T19:02:00.362Z,4.03
2022-12-05T19:04:28.882Z,4.70
2022-12-05T19:06:58.645Z,4.50
2022-12-05T19:09:28.218Z,4.40
2022-12-05T19:11:57.131Z,4.13
2022-12-05T19:14:25.543Z,4.47
2022-12-05T19:17:00.015Z,4.25
2022-12-05T19:19:27.730Z,4.07
2022-12-05T19:21:54.402Z,3.85
2022-12-05T19:24:21.000Z,3.85
2022-12-05T19:26:50.417Z,4.30
2022-12-05T19:29:17.405Z,4.22
2022-12-05T19:31:44.633Z,4.18
2022-12-05T19:34:11.908Z,4.35
2022-12-05T19:36:40.989Z,4.35
2022-12-05T19:39:10.764Z,3.92
2022-12-05T19:41:37.581Z,3.97
2022-12-05T19:44:04.973Z,4.65
2022-12-05T19:46:33.155Z,4.10
2022-12-05T19:49:07.271Z,4.03
2022-12-05T19:51:35.070Z,4.28
2022-12-05T19:54:03.413Z,4.30
2022-12-05T19:56:31.797Z,3.88
2022-12-05T19:58:59.824Z,4.15
2022-12-05T20:01:30.633Z,4.00
2022-12-05T20:03:59.893Z,4.30
2022-12-05T20:06:35.661Z,3.67
2022-12-05T20:09:03.069Z,3.80
2022-12-05T20:11:29.998Z,3.60
2022-12-05T20:13:58.715Z,4.27
2022-12-05T20:16:29.461Z,3.78
2022-12-05T20:18:58.235Z,4.13
2022-12-05T20:21:26.172Z,4.10
2022-12-05T20:23:54.457Z,4.10
2022-12-05T20:26:25.002Z,3.50
2022-12-05T20:28:52.031Z,3.63
2022-12-05T20:31:21.945Z,3.72
2022-12-05T20:33:52.916Z,3.83
2022-12-05T20:36:22.463Z,3.47
2022-12-05T20:38:49.565Z,3.70
2022-12-05T20:41:18.237Z,3.90
2022-12-05T20:43:46.407Z,4.05
2022-12-05T20:46:16.094Z,3.72
2022-12-05T20:48:43.518Z,3.90
2022-12-05T20:51:12.551Z,3.90
2022-12-05T20:53:40.984Z,3.33
2022-12-05T20:56:10.914Z,4.13
2022-12-05T20:58:38.492Z,3.75
2022-12-05T21:01:08.143Z,4.00
2022-12-05T21:03:35.934Z,3.50
2022-12-05T21:06:12.035Z,3.40
2022-12-05T21:08:38.809Z,4.05
2022-12-05T21:11:06.746Z,4.13
2022-12-05T21:13:34.103Z,3.80
2022-12-05T21:16:20.807Z,3.73
2022-12-05T21:18:48.068Z,3.45
2022-12-05T21:21:20.236Z,3.75
2022-12-05T21:23:51.793Z,3.60
2022-12-05T21:26:19.062Z,3.30
2022-12-05T21:28:46.328Z,3.43
2022-12-05T21:31:34.172Z,3.38
2022-12-05T21:34:04.540Z,3.40
2022-12-05T21:36:33.646Z,3.20
2022-12-05T21:39:00.571Z,3.50
2022-12-05T21:41:27.307Z,3.23
2022-12-05T21:43:55.597Z,3.63
2022-12-05T21:46:23.723Z,3.20
2022-12-05T21:48:50.559Z,3.17
2022-12-05T21:51:17.344Z,3.60
2022-12-05T21:53:44.004Z,3.00
2022-12-05T21:56:17.266Z,3.08
2022-12-05T21:58:45.948Z,3.45
2022-12-05T22:01:17.639Z,3.00
2022-12-05T22:03:44.555Z,3.25
2022-12-05T22:06:12.806Z,3.40
2022-12-05T22:08:39.631Z,3.17
2022-12-05T22:11:10.745Z,3.17
2022-12-05T22:13:38.042Z,3.33
2022-12-05T22:16:05.245Z,3.05
2022-12-05T22:18:32.711Z,3.40
2022-12-05T22:21:01.610Z,3.10
2022-12-05T22:23:29.022Z,3.33
2022-12-05T22:26:02.478Z,3.35
2022-12-05T22:28:30.341Z,3.20
2022-12-05T22:30:58.679Z,3.00
2022-12-05T22:33:26.358Z,2.92
2022-12-05T22:35:56.749Z,2.90
2022-12-05T22:38:25.097Z,3.17
2022-12-05T22:40:56.358Z,3.22
2022-12-05T22:43:24.101Z,3.10
2022-12-05T22:45:51.150Z,2.92
2022-12-05T22:48:17.929Z,3.08
2022-12-05T22:50:48.982Z,3.00
2022-12-05T22:53:17.815Z,2.88
2022-12-05T22:55:44.361Z,2.57
2022-12-05T22:58:11.344Z,2.67
2022-12-05T23:00:37.926Z,2.97
2022-12-05T23:03:05.346Z,3.03
2022-12-05T23:05:32.306Z,3.05
2022-12-05T23:07:59.001Z,3.20
2022-12-05T23:10:25.781Z,3.00
2022-12-05T23:12:52.361Z,2.60
2022-12-05T23:15:22.048Z,2.53
2022-12-05T23:17:49.037Z,2.90
2022-12-05T23:20:16.113Z,3.33
2022-12-05T23:22:42.744Z,2.63
2022-12-05T23:25:09.835Z,2.80
2022-12-05T23:27:36.645Z,2.70
2022-12-05T23:30:04.212Z,2.63
2022-12-05T23:32:30.877Z,2.70
2022-12-05T23:34:57.419Z,2.70
2022-12-05T23:37:24.154Z,2.50
2022-12-05T23:39:50.948Z,2.53
2022-12-05T23:42:17.506Z,2.90
2022-12-05T23:44:44.268Z,2.27
2022-12-05T23:47:11.131Z,2.55
2022-12-05T23:49:37.739Z,2.50
2022-12-05T23:52:04.317Z,2.20
2022-12-05T23:54:30.928Z,2.70
2022-12-05T23:56:57.562Z,2.70
2022-12-05T23:59:24.153Z,2.67
